In Rescue
 
Open Full Screen Window  High Contrast Mode
Wind Gusting 19 knots
12
October 25, 2021 4:56 PM EDT
Weather Information
Wind Direction
  010 °
Wind Speed
  12 kt (14 mph)
Wind Gust
  19 kt (22 mph)
Altimeter
29.97 in
Visibility
10 SM
Temperature
08° C
46° F
Dewpoint
03° C
37° F
Humidity
71%
Sky Condition
Overcast @ 2,200 ft
MVFR

METAR KCAD 252056Z AUTO 01012G19KT 10SM OVC022 08/03 A2997 RMK AO2 T00760033

FAA Disclaimer: The data displayed is for advisory purposes only and is not to be used for flight planning or operations.